Hovedside
METAR-TAF:

METAR-TAF

Lufthavner :

Bahrain, Bahrain

breddegrad: 26-16N, lengdegrad: 050-39E, høyde over havet: 2 m

Gjeldene værobservasjon

Denne rapporten ble laget for 22 minutter siden, klokken 17:30 UTC
Vind 9 kt fra Vest-nordvest
Temperatur 33°C
Luftfuktighet 44%
Trykk 1000 hPa
Sikt: 9000 m
Skyfri himmel

METAR: OBBI 231730Z 29009KT 9000 SKC 33/19 Q1000 NOSIG

Tid: 20:52 (17:52 UTC)

Varsel

Denne rapporten ble laget for 52 minutter siden, klokken 17:00 UTC
Varsel gyldig fra 23. klokken 18 UTC til 25. klokken 00 UTC
Vind 10 kt fra Vest-nordvest
Sikt: 8000 m
Blir
fra 24. klokken 04 UTC til 24. klokken 06 UTC
Vind 15 kt fra Nord-nordvest med vindkast opp mot 25 kt
Blir
fra 24. klokken 20 UTC til 24. klokken 22 UTC
Vind 7 kt fra Vest-nordvest

TAF: OBBI 231700Z 2318/2500 29010KT 8000 NSC BECMG 2404/2406 34015G25KT BECMG 2420/2422 30007KT

Værobservasjoner og værvarsel for over 4000 flyplasser (METAR- og TAF-rapporter).

Tilgjengelige stasjoner er representert av de røde og gule prikkene på kartet.

Hold musepekeren over prikken for å se navnet på stasjonen.

Klikk så for å se værobservasjoner og -varsler.

For å forandre kartet kan du klikke på den grønne knappen med svart kryss for å zoome inn, på den grønne knappen med strek for å zoome ut, eller på de grønne pilene for å se tilstøtende kart.


METAR-TAF: